Time;durP1;ratioP1;P1;durP2;ratioP2;P2;SDS_P1;SDS_P2;PMS_P1;PMS_P2;Temp;Humidity;BMP_temperature;BMP_pressure;BME280_temperature;BME280_humidity;BME280_pressure;Samples;Min_cycle;Max_cycle;Signal;HPM_P1;HPM_P2
2022/01/21 00:01:36;;;;;;;10.80;1.37;;;;;;;;;;5031004;28;20351;-79
2022/01/21 00:04:02;;;;;;;13.60;1.50;;;;;;;;;;5039295;28;20316;-78
2022/01/21 00:06:29;;;;;;;13.53;1.17;;;;;;;;;;5045971;28;20308;-78
2022/01/21 00:08:55;;;;;;;10.67;1.20;;;;;;;;;;5038789;28;20620;-77
2022/01/21 00:11:22;;;;;;;17.80;1.63;;;;;;;;;;5030564;28;20279;-79
2022/01/21 00:13:48;;;;;;;15.27;0.90;;;;;;;;;;5062431;28;20315;-77
2022/01/21 00:16:16;;;;;;;18.80;1.23;;;;;;;;;;5029582;28;20320;-78
2022/01/21 00:18:44;;;;;;;9.63;1.50;;;;;;;;;;5037138;28;20026;-78
2022/01/21 00:32:11;;;;;;;5.07;1.00;;;;;;;;;;5026342;28;20314;-78
2022/01/21 00:34:37;;;;;;;15.23;1.80;;;;;;;;;;5049142;28;20288;-79
2022/01/21 00:37:05;;;;;;;16.50;1.70;;;;;;;;;;5038008;28;20337;-79
2022/01/21 00:39:33;;;;;;;12.27;2.23;;;;;;;;;;5038633;28;20272;-79
2022/01/21 00:44:31;;;;;;;17.67;1.73;;;;;;;;;;5030663;28;20276;-79
2022/01/21 00:46:57;;;;;;;8.23;1.57;;;;;;;;;;5029858;28;20438;-76
2022/01/21 00:49:23;;;;;;;19.70;2.00;;;;;;;;;;5039007;28;20036;-78
2022/01/21 00:51:49;;;;;;;7.33;1.20;;;;;;;;;;5027190;28;20446;-79
2022/01/21 00:54:15;;;;;;;5.00;1.30;;;;;;;;;;5027502;28;20304;-77
2022/01/21 00:56:41;;;;;;;9.00;1.90;;;;;;;;;;5035979;28;20271;-79
2022/01/21 00:59:09;;;;;;;5.83;1.20;;;;;;;;;;5038353;28;20746;-78
2022/01/21 01:01:36;;;;;;;11.77;3.10;;;;;;;;;;5035857;28;20307;-78
2022/01/21 01:04:04;;;;;;;8.73;1.50;;;;;;;;;;5046101;28;20308;-79
2022/01/21 01:06:30;;;;;;;13.80;2.07;;;;;;;;;;5039505;28;20272;-78
2022/01/21 01:08:56;;;;;;;10.40;2.00;;;;;;;;;;5039467;28;20284;-78
2022/01/21 01:22:07;;;;;;;12.50;1.73;;;;;;;;;;5031837;28;20361;-79
2022/01/21 01:29:57;;;;;;;12.40;1.50;;;;;;;;;;5031481;28;20359;-79
2022/01/21 01:32:24;;;;;;;11.30;1.57;;;;;;;;;;5028580;28;20268;-77
2022/01/21 01:34:51;;;;;;;16.63;3.87;;;;;;;;;;5029038;28;20276;-79
2022/01/21 01:50:55;;;;;;;10.33;2.17;;;;;;;;;;5026362;28;20265;-79
2022/01/21 01:53:23;;;;;;;12.43;1.90;;;;;;;;;;5030245;28;20319;-79
2022/01/21 01:55:49;;;;;;;10.10;1.57;;;;;;;;;;5030083;28;20283;-79
2022/01/21 01:58:16;;;;;;;5.77;1.57;;;;;;;;;;5035265;28;20277;-79
2022/01/21 02:00:42;;;;;;;13.70;1.60;;;;;;;;;;5025447;28;20323;-77
2022/01/21 02:03:13;;;;;;;21.23;2.27;;;;;;;;;;5030224;28;20282;-77
2022/01/21 02:05:39;;;;;;;8.50;1.47;;;;;;;;;;5036633;28;20354;-77
2022/01/21 02:08:06;;;;;;;6.60;1.80;;;;;;;;;;5038378;28;20369;-79
2022/01/21 02:10:32;;;;;;;11.30;1.83;;;;;;;;;;5035851;28;20307;-78
2022/01/21 02:13:17;;;;;;;5.83;1.70;;;;;;;;;;5060248;28;20264;-80
2022/01/21 02:15:43;;;;;;;18.03;1.33;;;;;;;;;;5044508;28;20302;-77
2022/01/21 02:23:39;;;;;;;9.20;1.33;;;;;;;;;;5029997;28;20291;-78
2022/01/21 02:26:05;;;;;;;6.97;1.83;;;;;;;;;;5036692;28;20749;-79
2022/01/21 02:28:31;;;;;;;10.30;1.70;;;;;;;;;;5036092;28;20280;-79
2022/01/21 02:30:58;;;;;;;7.47;1.43;;;;;;;;;;5027470;28;20037;-78
2022/01/21 02:33:25;;;;;;;8.13;2.83;;;;;;;;;;5038047;28;20276;-79
2022/01/21 02:35:51;;;;;;;12.93;1.73;;;;;;;;;;5026758;28;20302;-78
2022/01/21 02:38:17;;;;;;;12.33;1.30;;;;;;;;;;5060135;28;20363;-78
2022/01/21 02:40:43;;;;;;;12.73;3.30;;;;;;;;;;5036265;28;20358;-77
2022/01/21 02:43:10;;;;;;;5.57;1.40;;;;;;;;;;5036315;28;20279;-78
2022/01/21 02:45:37;;;;;;;4.53;1.10;;;;;;;;;;5028499;28;20292;-78
2022/01/21 02:48:07;;;;;;;9.87;1.33;;;;;;;;;;5034855;28;20294;-79
2022/01/21 02:50:33;;;;;;;10.17;1.63;;;;;;;;;;5026073;28;20749;-79
2022/01/21 02:53:24;;;;;;;16.67;1.47;;;;;;;;;;5035670;28;20294;-79
2022/01/21 02:55:51;;;;;;;19.37;2.37;;;;;;;;;;5036624;28;20283;-78
2022/01/21 02:58:18;;;;;;;11.57;1.43;;;;;;;;;;5024434;28;20350;-78
2022/01/21 03:00:44;;;;;;;10.00;1.93;;;;;;;;;;5040609;28;20287;-77
2022/01/21 03:03:10;;;;;;;8.67;1.40;;;;;;;;;;5036339;28;20308;-79
2022/01/21 03:05:38;;;;;;;9.63;1.20;;;;;;;;;;5034650;28;20280;-79
2022/01/21 03:08:05;;;;;;;9.37;1.40;;;;;;;;;;5028291;28;20312;-79
2022/01/21 03:10:34;;;;;;;20.63;1.83;;;;;;;;;;5035112;28;20368;-77
2022/01/21 03:13:00;;;;;;;6.47;1.70;;;;;;;;;;5034111;28;20283;-78
2022/01/21 03:15:28;;;;;;;4.70;1.23;;;;;;;;;;5028496;28;20288;-78
2022/01/21 03:17:54;;;;;;;18.70;1.57;;;;;;;;;;5027435;28;20054;-78
2022/01/21 03:20:22;;;;;;;10.17;1.93;;;;;;;;;;5038175;28;20300;-79
2022/01/21 03:22:48;;;;;;;2.67;1.10;;;;;;;;;;5044948;28;20022;-78
2022/01/21 03:25:14;;;;;;;8.87;1.43;;;;;;;;;;5029956;28;20839;-76
2022/01/21 03:27:40;;;;;;;10.13;1.77;;;;;;;;;;5035051;28;20034;-78
2022/01/21 03:30:07;;;;;;;8.47;1.93;;;;;;;;;;5039358;28;20176;-77
2022/01/21 03:32:33;;;;;;;14.37;1.70;;;;;;;;;;5041943;28;20108;-77
2022/01/21 03:34:59;;;;;;;6.33;1.13;;;;;;;;;;5030408;28;20347;-80
2022/01/21 03:37:26;;;;;;;13.23;1.50;;;;;;;;;;5038277;28;20275;-79
2022/01/21 03:39:52;;;;;;;18.83;1.77;;;;;;;;;;5035794;28;20273;-78
2022/01/21 03:42:18;;;;;;;11.07;1.50;;;;;;;;;;5029974;28;20280;-79
2022/01/21 03:44:44;;;;;;;9.63;1.33;;;;;;;;;;5039425;28;20041;-77
2022/01/21 03:47:10;;;;;;;6.43;1.40;;;;;;;;;;5037515;28;20810;-79
2022/01/21 03:49:39;;;;;;;7.57;1.50;;;;;;;;;;5038591;28;20029;-78
2022/01/21 03:52:06;;;;;;;9.63;1.30;;;;;;;;;;5033797;28;20057;-77
2022/01/21 03:54:35;;;;;;;17.23;1.80;;;;;;;;;;5038903;28;20326;-78
2022/01/21 03:57:04;;;;;;;5.60;1.40;;;;;;;;;;5031369;28;20385;-79
2022/01/21 03:59:30;;;;;;;8.67;1.03;;;;;;;;;;5038660;28;20752;-79
2022/01/21 04:01:56;;;;;;;10.07;1.30;;;;;;;;;;5047119;28;20368;-77
2022/01/21 04:04:22;;;;;;;4.23;1.23;;;;;;;;;;5035948;28;20268;-78
2022/01/21 04:06:50;;;;;;;22.03;3.03;;;;;;;;;;5037773;28;20333;-78
2022/01/21 04:09:16;;;;;;;14.57;1.80;;;;;;;;;;5046532;28;22181;-78
2022/01/21 04:11:42;;;;;;;4.53;1.83;;;;;;;;;;5049006;28;20284;-79
2022/01/21 04:14:08;;;;;;;4.37;1.03;;;;;;;;;;5033769;28;20039;-78
2022/01/21 04:16:35;;;;;;;4.73;1.30;;;;;;;;;;5049562;28;20291;-78
2022/01/21 04:19:01;;;;;;;14.50;1.50;;;;;;;;;;5039501;28;20277;-77
2022/01/21 04:21:27;;;;;;;10.67;1.53;;;;;;;;;;5037340;28;21147;-80
2022/01/21 04:23:53;;;;;;;7.93;2.00;;;;;;;;;;5037766;28;20096;-77
2022/01/21 04:26:19;;;;;;;5.70;1.20;;;;;;;;;;5064141;28;20273;-79
2022/01/21 04:28:45;;;;;;;12.30;1.43;;;;;;;;;;5035944;28;20314;-79
2022/01/21 04:31:11;;;;;;;13.73;1.80;;;;;;;;;;5031095;28;20041;-79
2022/01/21 04:33:37;;;;;;;9.23;1.03;;;;;;;;;;5027073;28;20034;-77
2022/01/21 04:36:03;;;;;;;12.60;1.40;;;;;;;;;;5047084;28;20049;-78
2022/01/21 04:38:30;;;;;;;8.37;1.63;;;;;;;;;;5040754;28;20819;-79
2022/01/21 04:41:05;;;;;;;11.43;1.60;;;;;;;;;;5028330;28;20283;-79
2022/01/21 04:49:01;;;;;;;10.10;1.83;;;;;;;;;;5028450;28;20282;-78
2022/01/21 04:51:29;;;;;;;10.10;0.97;;;;;;;;;;5045883;28;20276;-79
2022/01/21 04:53:56;;;;;;;10.20;1.67;;;;;;;;;;5033358;28;20048;-78
2022/01/21 04:56:22;;;;;;;20.13;2.20;;;;;;;;;;5032259;28;20284;-79
2022/01/21 04:58:48;;;;;;;6.83;1.20;;;;;;;;;;5034324;28;20312;-78
2022/01/21 05:01:14;;;;;;;21.53;1.60;;;;;;;;;;5036620;28;20284;-77
2022/01/21 05:03:42;;;;;;;8.27;1.70;;;;;;;;;;5030545;28;20309;-79
2022/01/21 05:06:08;;;;;;;6.70;1.27;;;;;;;;;;5038848;28;20292;-77
2022/01/21 05:08:46;;;;;;;15.67;2.07;;;;;;;;;;5031292;28;20294;-78
2022/01/21 05:11:13;;;;;;;11.73;1.63;;;;;;;;;;5038207;28;20454;-78
2022/01/21 05:13:50;;;;;;;25.87;2.43;;;;;;;;;;5038593;28;20772;-77
2022/01/21 05:18:48;;;;;;;13.27;1.92;;;;;;;;;;5030071;28;20637;-79
2022/01/21 05:21:14;;;;;;;15.20;2.43;;;;;;;;;;5036702;28;20083;-78
2022/01/21 05:23:40;;;;;;;8.07;2.60;;;;;;;;;;5044330;28;20020;-78
2022/01/21 05:26:06;;;;;;;15.97;2.47;;;;;;;;;;5038790;28;20287;-78
2022/01/21 05:28:35;;;;;;;24.70;2.50;;;;;;;;;;5036793;28;20132;-77
2022/01/21 05:31:01;;;;;;;10.67;1.30;;;;;;;;;;5037140;28;20601;-79
2022/01/21 05:33:27;;;;;;;11.80;2.07;;;;;;;;;;5029997;28;20330;-80
2022/01/21 05:35:53;;;;;;;13.90;2.03;;;;;;;;;;5045207;28;20314;-79
2022/01/21 05:38:21;;;;;;;10.67;1.57;;;;;;;;;;5026091;28;20032;-79
2022/01/21 05:40:50;;;;;;;14.33;1.83;;;;;;;;;;5030918;28;21625;-77
2022/01/21 05:43:17;;;;;;;7.93;2.30;;;;;;;;;;5036371;28;20364;-80
2022/01/21 05:48:27;;;;;;;14.93;2.23;;;;;;;;;;5031380;28;20311;-76
2022/01/21 05:50:53;;;;;;;13.67;1.80;;;;;;;;;;5028546;28;20312;-79
2022/01/21 05:53:19;;;;;;;15.80;2.43;;;;;;;;;;5036186;28;20021;-80
2022/01/21 05:55:45;;;;;;;11.40;1.60;;;;;;;;;;5024687;28;20306;-79
2022/01/21 05:58:13;;;;;;;19.07;1.90;;;;;;;;;;5025701;28;20363;-78
2022/01/21 06:00:40;;;;;;;24.00;3.60;;;;;;;;;;5036077;28;20351;-78
2022/01/21 06:03:06;;;;;;;14.00;2.53;;;;;;;;;;5025148;28;20316;-79
2022/01/21 06:05:33;;;;;;;9.63;2.67;;;;;;;;;;5026071;28;20287;-79
2022/01/21 06:08:05;;;;;;;9.83;2.57;;;;;;;;;;5031010;28;20279;-79
2022/01/21 06:10:31;;;;;;;25.77;3.17;;;;;;;;;;5040262;28;20869;-78
2022/01/21 06:12:57;;;;;;;21.73;4.67;;;;;;;;;;5028254;28;20105;-79
2022/01/21 06:15:24;;;;;;;15.23;2.83;;;;;;;;;;5031640;28;20283;-78
2022/01/21 06:17:52;;;;;;;8.67;2.30;;;;;;;;;;5031406;28;20275;-78
2022/01/21 06:20:18;;;;;;;11.57;1.50;;;;;;;;;;5036820;28;20282;-79
2022/01/21 06:22:44;;;;;;;14.37;2.30;;;;;;;;;;5028733;28;20287;-77
2022/01/21 06:25:10;;;;;;;9.87;1.77;;;;;;;;;;5030902;28;20280;-79
2022/01/21 06:27:39;;;;;;;15.37;2.23;;;;;;;;;;5038660;28;20599;-79
2022/01/21 06:30:05;;;;;;;10.40;2.80;;;;;;;;;;5032672;28;21043;-77
2022/01/21 06:32:33;;;;;;;10.47;2.60;;;;;;;;;;5037916;28;20311;-77
2022/01/21 06:34:59;;;;;;;6.37;2.43;;;;;;;;;;5031142;28;20284;-78
2022/01/21 06:37:25;;;;;;;15.37;3.23;;;;;;;;;;5028721;28;20361;-79
2022/01/21 06:39:51;;;;;;;13.43;3.33;;;;;;;;;;5031667;28;20362;-78
2022/01/21 06:42:22;;;;;;;10.07;4.07;;;;;;;;;;5042973;28;20466;-77
2022/01/21 06:44:48;;;;;;;9.50;3.20;;;;;;;;;;5033915;28;20061;-78
2022/01/21 06:47:14;;;;;;;16.83;2.73;;;;;;;;;;5026852;28;22065;-77
2022/01/21 06:49:40;;;;;;;24.17;3.10;;;;;;;;;;5037920;28;20111;-78
2022/01/21 06:52:06;;;;;;;8.70;3.27;;;;;;;;;;5036187;28;20473;-80
2022/01/21 06:54:32;;;;;;;14.20;3.93;;;;;;;;;;5032477;28;20048;-78
2022/01/21 06:56:58;;;;;;;15.90;3.87;;;;;;;;;;5028014;28;20281;-79
2022/01/21 06:59:24;;;;;;;13.90;3.50;;;;;;;;;;5027575;28;20036;-78
2022/01/21 07:01:50;;;;;;;11.47;3.80;;;;;;;;;;5036250;28;20268;-79
2022/01/21 07:04:16;;;;;;;8.50;2.83;;;;;;;;;;5027414;28;20061;-79
2022/01/21 07:06:42;;;;;;;20.27;4.60;;;;;;;;;;5028632;28;20373;-80
2022/01/21 07:09:08;;;;;;;10.83;3.67;;;;;;;;;;5058310;28;20833;-79
2022/01/21 07:11:37;;;;;;;17.57;3.97;;;;;;;;;;5046250;28;20291;-79
2022/01/21 07:14:03;;;;;;;18.77;3.60;;;;;;;;;;5034907;28;20362;-79
2022/01/21 07:16:29;;;;;;;8.17;3.10;;;;;;;;;;5035059;28;20316;-77
2022/01/21 07:18:55;;;;;;;19.87;4.43;;;;;;;;;;5036235;28;20287;-79
2022/01/21 07:21:21;;;;;;;20.43;4.20;;;;;;;;;;5026932;28;20269;-79
2022/01/21 07:23:47;;;;;;;13.50;3.90;;;;;;;;;;5038210;28;20358;-77
2022/01/21 07:26:14;;;;;;;15.27;3.87;;;;;;;;;;5034466;28;20030;-80
2022/01/21 07:28:40;;;;;;;20.87;3.83;;;;;;;;;;5035650;28;20359;-79
2022/01/21 07:31:06;;;;;;;8.90;3.97;;;;;;;;;;5025091;28;20276;-79
2022/01/21 07:33:32;;;;;;;17.73;5.53;;;;;;;;;;5030500;28;20293;-78
2022/01/21 07:35:58;;;;;;;18.53;4.77;;;;;;;;;;5025234;28;20300;-79
2022/01/21 07:38:24;;;;;;;8.13;3.27;;;;;;;;;;5038435;28;20301;-78
2022/01/21 07:40:50;;;;;;;17.63;4.93;;;;;;;;;;5037465;28;20276;-79
2022/01/21 07:43:16;;;;;;;8.07;3.83;;;;;;;;;;5046796;28;20272;-79
2022/01/21 07:45:42;;;;;;;18.37;3.77;;;;;;;;;;5029104;28;20029;-78
2022/01/21 07:48:08;;;;;;;5.87;3.47;;;;;;;;;;5036134;28;20060;-77
2022/01/21 07:50:35;;;;;;;13.17;3.77;;;;;;;;;;5028803;28;20370;-80
2022/01/21 07:53:04;;;;;;;11.20;3.73;;;;;;;;;;5036679;28;20276;-79
2022/01/21 07:55:32;;;;;;;11.63;4.60;;;;;;;;;;5034213;28;20345;-79
2022/01/21 07:58:00;;;;;;;25.00;3.70;;;;;;;;;;5035652;28;20595;-77
2022/01/21 08:00:28;;;;;;;18.97;4.07;;;;;;;;;;5034253;28;20356;-79
2022/01/21 08:02:54;;;;;;;15.60;4.23;;;;;;;;;;5031489;28;20318;-78
2022/01/21 08:05:21;;;;;;;13.00;4.77;;;;;;;;;;5035367;28;20593;-79
2022/01/21 08:07:47;;;;;;;12.33;4.10;;;;;;;;;;5031961;28;20798;-79
2022/01/21 08:10:13;;;;;;;15.30;3.97;;;;;;;;;;5035439;28;20279;-76
2022/01/21 08:12:39;;;;;;;16.27;3.90;;;;;;;;;;5044655;28;20368;-80
2022/01/21 08:15:05;;;;;;;14.33;3.97;;;;;;;;;;5035945;28;20030;-79
2022/01/21 08:17:33;;;;;;;15.90;3.43;;;;;;;;;;5040445;28;20021;-78
2022/01/21 08:19:59;;;;;;;17.83;4.77;;;;;;;;;;5049535;28;20349;-79
2022/01/21 08:22:26;;;;;;;16.37;5.00;;;;;;;;;;5039153;28;20796;-78
2022/01/21 08:24:52;;;;;;;10.47;3.80;;;;;;;;;;5030223;28;20034;-78
2022/01/21 08:27:18;;;;;;;17.80;4.47;;;;;;;;;;5033590;28;20425;-78
2022/01/21 08:29:44;;;;;;;15.10;4.87;;;;;;;;;;5046996;28;20059;-80
2022/01/21 08:32:12;;;;;;;19.87;5.10;;;;;;;;;;5040530;28;20044;-78
2022/01/21 08:34:38;;;;;;;14.80;4.67;;;;;;;;;;5037852;28;20284;-79
2022/01/21 08:37:04;;;;;;;10.30;3.97;;;;;;;;;;5039106;28;20285;-77
2022/01/21 08:39:33;;;;;;;13.57;3.67;;;;;;;;;;5038652;28;20367;-79
2022/01/21 08:41:59;;;;;;;16.40;4.40;;;;;;;;;;5027601;28;20370;-79
2022/01/21 08:44:25;;;;;;;15.03;4.17;;;;;;;;;;5032425;28;21870;-80
2022/01/21 08:46:54;;;;;;;13.77;4.77;;;;;;;;;;5038463;28;20357;-77
2022/01/21 08:49:21;;;;;;;18.20;3.83;;;;;;;;;;5040294;28;20116;-79
2022/01/21 08:51:50;;;;;;;14.90;4.97;;;;;;;;;;5038775;28;20283;-79
2022/01/21 08:54:17;;;;;;;16.67;3.83;;;;;;;;;;5038793;28;20371;-80
2022/01/21 08:56:43;;;;;;;15.33;4.67;;;;;;;;;;5030238;28;20364;-79
2022/01/21 08:59:12;;;;;;;13.20;4.40;;;;;;;;;;5036463;28;20277;-78
2022/01/21 09:01:38;;;;;;;10.53;3.33;;;;;;;;;;5039565;28;20338;-79
2022/01/21 09:04:04;;;;;;;10.80;4.57;;;;;;;;;;5034035;28;20769;-79
2022/01/21 09:06:30;;;;;;;10.10;4.13;;;;;;;;;;5030407;28;20304;-77
2022/01/21 09:08:56;;;;;;;9.87;3.60;;;;;;;;;;5038952;28;20307;-79
2022/01/21 09:11:23;;;;;;;27.93;5.27;;;;;;;;;;5037323;28;20330;-79
2022/01/21 09:13:49;;;;;;;19.20;4.57;;;;;;;;;;5030178;28;20283;-78
2022/01/21 09:16:19;;;;;;;10.97;4.40;;;;;;;;;;5038916;28;20288;-79
2022/01/21 09:18:47;;;;;;;9.53;4.00;;;;;;;;;;5028616;28;20732;-79
2022/01/21 09:21:16;;;;;;;19.90;4.43;;;;;;;;;;5036750;28;20728;-78
2022/01/21 09:23:47;;;;;;;9.03;3.73;;;;;;;;;;5037066;28;20273;-78
2022/01/21 09:26:14;;;;;;;17.43;4.40;;;;;;;;;;5029489;28;21190;-79
2022/01/21 09:28:40;;;;;;;28.73;3.87;;;;;;;;;;5038083;28;20342;-78
2022/01/21 09:31:06;;;;;;;12.97;4.20;;;;;;;;;;5031155;28;20657;-80
2022/01/21 09:33:32;;;;;;;19.83;4.10;;;;;;;;;;5028725;28;20037;-79
2022/01/21 09:35:58;;;;;;;13.20;4.77;;;;;;;;;;5037394;28;20067;-77
2022/01/21 09:38:26;;;;;;;20.87;5.20;;;;;;;;;;5034920;28;20387;-79
2022/01/21 09:40:53;;;;;;;16.80;4.63;;;;;;;;;;5036780;28;20676;-78
2022/01/21 09:43:19;;;;;;;6.90;4.07;;;;;;;;;;5038209;28;20639;-80
2022/01/21 09:45:52;;;;;;;18.23;5.07;;;;;;;;;;5036057;28;20279;-79
2022/01/21 09:48:23;;;;;;;16.02;5.13;;;;;;;;;;5028993;28;20272;-79
2022/01/21 09:50:55;;;;;;;13.00;5.47;;;;;;;;;;5038281;28;20116;-79
2022/01/21 09:53:25;;;;;;;35.33;7.05;;;;;;;;;;5037294;28;20276;-77
2022/01/21 09:55:52;;;;;;;16.10;5.57;;;;;;;;;;5045819;28;20120;-79
2022/01/21 09:58:19;;;;;;;10.63;5.17;;;;;;;;;;5038791;28;20275;-80
2022/01/21 10:00:45;;;;;;;10.53;5.43;;;;;;;;;;5030468;28;20279;-80
2022/01/21 10:03:11;;;;;;;19.40;4.97;;;;;;;;;;5031149;28;20324;-80
2022/01/21 10:05:38;;;;;;;13.07;5.17;;;;;;;;;;5038201;28;20775;-79
2022/01/21 10:08:04;;;;;;;19.57;4.27;;;;;;;;;;5026537;28;20814;-79
2022/01/21 10:10:30;;;;;;;9.93;5.17;;;;;;;;;;5036378;28;20277;-78
2022/01/21 10:13:02;;;;;;;20.67;5.17;;;;;;;;;;5035478;28;20334;-78
2022/01/21 10:15:28;;;;;;;10.47;4.53;;;;;;;;;;5044241;28;20446;-79
2022/01/21 10:17:58;;;;;;;10.80;4.50;;;;;;;;;;5028713;28;20271;-77
2022/01/21 10:20:25;;;;;;;9.03;4.50;;;;;;;;;;5037397;28;20278;-78
2022/01/21 10:23:05;;;;;;;6.20;3.27;;;;;;;;;;5036531;28;20283;-78
2022/01/21 10:25:33;;;;;;;26.07;4.23;;;;;;;;;;5058306;28;20280;-79
2022/01/21 10:28:09;;;;;;;16.77;3.63;;;;;;;;;;5033910;28;20364;-79
2022/01/21 10:30:35;;;;;;;9.90;3.77;;;;;;;;;;5035179;28;20276;-79
2022/01/21 10:33:02;;;;;;;8.43;4.23;;;;;;;;;;5035202;28;21114;-80
2022/01/21 10:35:35;;;;;;;9.67;4.40;;;;;;;;;;5034064;28;20300;-79
2022/01/21 10:38:27;;;;;;;12.52;4.03;;;;;;;;;;5035783;28;20284;-79
2022/01/21 10:41:02;;;;;;;9.15;3.63;;;;;;;;;;5034035;28;20065;-79
2022/01/21 10:43:30;;;;;;;14.30;4.30;;;;;;;;;;5027435;28;20025;-80
2022/01/21 10:45:58;;;;;;;8.30;3.83;;;;;;;;;;5034010;28;20768;-79
2022/01/21 10:48:44;;;;;;;25.20;4.30;;;;;;;;;;5033945;28;20283;-79
2022/01/21 10:51:17;;;;;;;6.63;3.53;;;;;;;;;;5032250;28;20293;-79
2022/01/21 10:53:45;;;;;;;14.47;3.87;;;;;;;;;;5037716;28;20359;-78
2022/01/21 10:56:18;;;;;;;15.23;3.50;;;;;;;;;;5036538;28;20761;-78
2022/01/21 10:58:52;;;;;;;11.80;2.80;;;;;;;;;;5036519;28;20358;-78
2022/01/21 11:01:21;;;;;;;12.50;3.53;;;;;;;;;;5037353;28;20637;-78
2022/01/21 11:04:00;;;;;;;12.60;3.10;;;;;;;;;;5036632;28;20279;-78
2022/01/21 11:06:32;;;;;;;10.13;2.93;;;;;;;;;;5044166;28;20276;-79
2022/01/21 11:09:21;;;;;;;9.73;2.60;;;;;;;;;;5034421;28;20299;-80
2022/01/21 11:11:51;;;;;;;4.93;2.50;;;;;;;;;;5035031;28;20030;-76
2022/01/21 11:14:20;;;;;;;6.40;2.93;;;;;;;;;;5036970;28;20884;-78
2022/01/21 11:16:50;;;;;;;8.17;2.60;;;;;;;;;;5034313;28;20040;-78
2022/01/21 11:19:24;;;;;;;18.47;4.13;;;;;;;;;;5034305;28;20033;-79
2022/01/21 11:21:56;;;;;;;10.53;3.10;;;;;;;;;;5036422;28;20043;-78
2022/01/21 11:24:23;;;;;;;12.50;3.47;;;;;;;;;;5025807;28;20101;-78
2022/01/21 11:27:08;;;;;;;6.37;2.50;;;;;;;;;;5038960;28;20876;-79
2022/01/21 11:29:34;;;;;;;11.03;2.60;;;;;;;;;;5027327;28;20040;-79
2022/01/21 11:32:03;;;;;;;11.07;2.90;;;;;;;;;;5037030;28;20116;-79
2022/01/21 11:34:29;;;;;;;7.30;3.77;;;;;;;;;;5032923;28;20029;-79
2022/01/21 11:36:55;;;;;;;13.00;3.07;;;;;;;;;;5034719;28;20133;-78
2022/01/21 11:39:23;;;;;;;13.83;4.17;;;;;;;;;;5033169;28;20030;-78
2022/01/21 11:41:51;;;;;;;13.87;3.30;;;;;;;;;;5034141;28;20055;-77
2022/01/21 11:44:21;;;;;;;13.70;2.60;;;;;;;;;;5036240;28;20037;-79
2022/01/21 11:47:01;;;;;;;12.90;2.90;;;;;;;;;;5030136;28;20033;-79
2022/01/21 11:49:28;;;;;;;3.93;2.53;;;;;;;;;;5039962;28;20124;-78
2022/01/21 11:52:13;;;;;;;9.37;3.00;;;;;;;;;;5040144;28;20162;-78
2022/01/21 11:54:42;;;;;;;8.43;2.80;;;;;;;;;;5038936;28;20488;-78
2022/01/21 11:57:10;;;;;;;4.37;2.67;;;;;;;;;;5031359;28;20040;-77
2022/01/21 11:59:57;;;;;;;7.70;2.57;;;;;;;;;;5042260;28;20099;-78
2022/01/21 12:02:28;;;;;;;6.87;3.07;;;;;;;;;;5036946;28;20030;-79
2022/01/21 12:05:10;;;;;;;3.30;2.40;;;;;;;;;;5032068;28;20033;-78
2022/01/21 12:07:44;;;;;;;5.07;2.25;;;;;;;;;;5040979;28;20087;-79
2022/01/21 12:10:10;;;;;;;7.47;3.00;;;;;;;;;;5030705;28;20473;-79
2022/01/21 12:12:50;;;;;;;5.20;2.60;;;;;;;;;;5041303;28;20036;-79
2022/01/21 12:20:43;;;;;;;3.53;2.00;;;;;;;;;;5031338;28;20099;-78
2022/01/21 12:23:13;;;;;;;11.20;2.43;;;;;;;;;;5039820;28;20039;-79
2022/01/21 12:25:58;;;;;;;5.80;2.50;;;;;;;;;;5037615;28;20029;-78
2022/01/21 12:28:24;;;;;;;5.37;2.53;;;;;;;;;;5032844;28;20039;-78
2022/01/21 12:30:53;;;;;;;3.93;2.23;;;;;;;;;;5028269;28;20163;-79
2022/01/21 12:33:20;;;;;;;6.57;2.30;;;;;;;;;;5038212;28;20615;-80
2022/01/21 12:35:47;;;;;;;4.60;1.90;;;;;;;;;;5038971;28;20030;-79
2022/01/21 12:40:52;;;;;;;15.40;2.80;;;;;;;;;;5032494;28;20030;-78
2022/01/21 12:43:37;;;;;;;9.80;2.50;;;;;;;;;;5036826;28;20057;-80
2022/01/21 12:46:04;;;;;;;10.70;2.20;;;;;;;;;;5039264;28;20030;-79
2022/01/21 12:48:38;;;;;;;8.17;2.33;;;;;;;;;;5037603;28;20044;-79
2022/01/21 12:56:43;;;;;;;11.43;2.03;;;;;;;;;;5030121;28;20183;-80
2022/01/21 12:59:14;;;;;;;4.80;2.43;;;;;;;;;;5038645;28;20255;-80
2022/01/21 13:01:40;;;;;;;5.23;2.47;;;;;;;;;;5037823;28;20114;-78
2022/01/21 13:04:11;;;;;;;9.07;3.33;;;;;;;;;;5040025;28;21825;-80
2022/01/21 13:06:52;;;;;;;4.33;2.33;;;;;;;;;;5036360;28;20425;-79
2022/01/21 13:09:25;;;;;;;10.53;2.00;;;;;;;;;;5035674;28;20467;-80
2022/01/21 13:11:52;;;;;;;;;;;;;;;;;;5046608;28;20810;-79
2022/01/21 13:17:13;;;;;;;10.70;2.60;;;;;;;;;;5029282;28;20054;-78
2022/01/21 13:19:44;;;;;;;7.07;2.43;;;;;;;;;;5034584;28;20026;-80
2022/01/21 13:22:19;;;;;;;7.60;2.50;;;;;;;;;;5030259;28;20033;-79
2022/01/21 13:25:05;;;;;;;2.97;2.47;;;;;;;;;;5028753;28;20117;-79
2022/01/21 13:27:32;;;;;;;8.60;2.50;;;;;;;;;;5032631;28;20029;-79
2022/01/21 13:30:03;;;;;;;6.17;2.37;;;;;;;;;;5035964;28;21683;-78
2022/01/21 13:32:29;;;;;;;5.40;2.37;;;;;;;;;;5035417;28;20040;-79
2022/01/21 13:35:11;;;;;;;7.50;2.43;;;;;;;;;;5030528;28;20029;-80
2022/01/21 13:37:38;;;;;;;6.30;1.97;;;;;;;;;;5036816;28;20845;-80
2022/01/21 13:40:07;;;;;;;3.13;1.83;;;;;;;;;;5038000;28;20116;-80
2022/01/21 13:42:33;;;;;;;4.70;2.40;;;;;;;;;;5033759;28;20399;-80
2022/01/21 13:45:02;;;;;;;7.00;3.40;;;;;;;;;;5035464;28;20030;-78
2022/01/21 13:47:48;;;;;;;9.50;2.97;;;;;;;;;;5037709;28;20362;-79
2022/01/21 13:50:14;;;;;;;15.57;4.03;;;;;;;;;;5031709;28;20643;-79
2022/01/21 13:52:52;;;;;;;14.73;2.83;;;;;;;;;;5029332;28;20335;-77
2022/01/21 13:55:28;;;;;;;11.40;3.10;;;;;;;;;;5041883;28;20425;-79
2022/01/21 13:57:54;;;;;;;5.87;2.67;;;;;;;;;;5029144;28;20025;-78
2022/01/21 14:00:36;;;;;;;6.50;3.10;;;;;;;;;;5045331;28;20457;-79
2022/01/21 14:03:22;;;;;;;14.33;3.53;;;;;;;;;;5044001;28;20037;-80
2022/01/21 14:06:03;;;;;;;10.63;3.03;;;;;;;;;;5035306;28;20116;-78
2022/01/21 14:08:29;;;;;;;5.63;3.77;;;;;;;;;;5061114;28;20092;-78
2022/01/21 14:11:05;;;;;;;13.13;4.30;;;;;;;;;;5036687;28;20091;-78
2022/01/21 14:13:32;;;;;;;9.90;3.43;;;;;;;;;;5038556;28;20039;-78
2022/01/21 14:16:03;;;;;;;7.80;2.80;;;;;;;;;;5034148;28;20094;-78
2022/01/21 14:18:30;;;;;;;7.23;3.33;;;;;;;;;;5028501;28;20040;-79
2022/01/21 14:21:14;;;;;;;8.60;2.87;;;;;;;;;;5034615;28;20026;-78
2022/01/21 14:23:40;;;;;;;6.37;3.87;;;;;;;;;;5037023;28;20033;-77
2022/01/21 14:26:07;;;;;;;15.17;5.47;;;;;;;;;;5037465;28;20047;-79
2022/01/21 14:28:40;;;;;;;14.97;4.97;;;;;;;;;;5028926;28;20044;-79
2022/01/21 14:31:06;;;;;;;19.30;4.10;;;;;;;;;;5026382;28;20025;-79
2022/01/21 14:33:42;;;;;;;7.00;4.30;;;;;;;;;;5036324;28;20083;-78
2022/01/21 14:36:12;;;;;;;16.90;4.87;;;;;;;;;;5034232;28;20163;-79
2022/01/21 14:38:38;;;;;;;8.27;4.17;;;;;;;;;;5026895;28;20021;-78
2022/01/21 14:41:15;;;;;;;13.37;5.57;;;;;;;;;;5033465;28;20272;-78
2022/01/21 14:43:49;;;;;;;16.17;5.23;;;;;;;;;;5030951;28;20774;-78
2022/01/21 14:46:24;;;;;;;9.97;5.27;;;;;;;;;;5032820;28;20280;-77
2022/01/21 14:49:01;;;;;;;17.17;5.40;;;;;;;;;;5033865;28;20037;-78
2022/01/21 14:51:50;;;;;;;24.90;7.30;;;;;;;;;;5035594;28;20045;-79
2022/01/21 14:54:16;;;;;;;20.07;6.20;;;;;;;;;;5035620;28;20298;-77
2022/01/21 14:56:44;;;;;;;12.53;6.43;;;;;;;;;;5034878;28;20969;-79
2022/01/21 14:59:15;;;;;;;13.97;6.97;;;;;;;;;;5028133;28;20292;-77
2022/01/21 15:02:01;;;;;;;17.25;7.85;;;;;;;;;;5035588;28;20040;-78
2022/01/21 15:04:27;;;;;;;16.57;6.73;;;;;;;;;;5046388;28;20063;-79
2022/01/21 15:07:09;;;;;;;22.17;8.10;;;;;;;;;;5060244;28;20065;-79
2022/01/21 15:09:37;;;;;;;12.03;7.20;;;;;;;;;;5035858;28;20783;-78
2022/01/21 15:14:23;;;;;;;17.73;7.97;;;;;;;;;;5035517;28;20334;-78
2022/01/21 15:14:58;;;;;;;16.07;8.00;;;;;;;;;;5027380;28;20314;-76
2022/01/21 15:17:26;;;;;;;19.60;7.27;;;;;;;;;;5035876;28;20029;-78
2022/01/21 15:19:54;;;;;;;25.53;8.23;;;;;;;;;;5036328;28;20028;-77
2022/01/21 15:22:25;;;;;;;19.20;7.13;;;;;;;;;;5040670;28;20346;-77
2022/01/21 15:24:52;;;;;;;23.40;9.10;;;;;;;;;;5038137;28;20296;-78
2022/01/21 15:27:21;;;;;;;27.00;10.87;;;;;;;;;;5048781;28;20331;-78
2022/01/21 15:29:48;;;;;;;15.77;7.50;;;;;;;;;;5039263;28;20030;-78
2022/01/21 15:32:14;;;;;;;23.87;8.70;;;;;;;;;;5032870;28;20036;-78
2022/01/21 15:34:41;;;;;;;24.23;9.23;;;;;;;;;;5037292;28;20056;-79
2022/01/21 15:37:09;;;;;;;24.27;8.80;;;;;;;;;;5036334;28;20041;-80
2022/01/21 15:39:35;;;;;;;18.67;9.60;;;;;;;;;;5026962;28;20308;-79
2022/01/21 15:42:01;;;;;;;21.30;9.87;;;;;;;;;;5041422;28;21622;-79
2022/01/21 15:44:30;;;;;;;18.20;8.57;;;;;;;;;;5042896;28;20395;-79
2022/01/21 15:46:56;;;;;;;28.40;9.70;;;;;;;;;;5038521;28;20044;-78
2022/01/21 15:49:26;;;;;;;26.53;11.43;;;;;;;;;;5029892;28;20033;-80
2022/01/21 15:51:52;;;;;;;27.87;11.33;;;;;;;;;;5032581;28;20284;-80
2022/01/21 15:54:19;;;;;;;18.97;11.07;;;;;;;;;;5048408;28;20040;-79
2022/01/21 15:56:45;;;;;;;22.47;10.63;;;;;;;;;;5038690;28;20292;-78
2022/01/21 15:59:12;;;;;;;19.30;10.80;;;;;;;;;;5028977;28;22007;-79